Time;durP1;ratioP1;P1;durP2;ratioP2;P2;SDS_P1;SDS_P2;PMS_P1;PMS_P2;Temp;Humidity;BMP_temperature;BMP_pressure;BME280_temperature;BME280_humidity;BME280_pressure;Samples;Min_cycle;Max_cycle;Signal;HPM_P1;HPM_P2
2023/08/04 00:00:06;;;;;;;10.80;2.25;;;17.10;99.90;;;;;;5119435;27;20053;-82
2023/08/04 00:02:32;;;;;;;6.75;2.50;;;17.00;99.90;;;;;;5087422;27;20036;-82
2023/08/04 00:04:57;;;;;;;8.48;2.08;;;17.10;99.90;;;;;;5124029;27;20116;-82
2023/08/04 00:07:23;;;;;;;10.00;2.60;;;17.10;99.90;;;;;;5132974;27;20027;-82
2023/08/04 00:09:49;;;;;;;7.28;2.05;;;17.00;99.90;;;;;;5114610;27;20443;-82
2023/08/04 00:12:14;;;;;;;6.72;2.20;;;17.10;99.90;;;;;;5113883;27;20035;-82
2023/08/04 00:14:40;;;;;;;11.55;3.20;;;17.00;99.90;;;;;;5121510;27;20039;-82
2023/08/04 00:17:05;;;;;;;9.75;2.45;;;17.10;99.90;;;;;;5114255;27;20046;-82
2023/08/04 00:19:31;;;;;;;6.57;2.33;;;17.00;99.90;;;;;;5132517;27;20046;-82
2023/08/04 00:21:57;;;;;;;6.13;2.05;;;17.00;99.90;;;;;;5123670;27;20406;-82
2023/08/04 00:24:22;;;;;;;9.25;2.45;;;17.00;99.90;;;;;;5132692;27;20045;-82
2023/08/04 00:26:48;;;;;;;6.63;2.22;;;16.90;99.90;;;;;;5097580;27;20045;-82
2023/08/04 00:29:13;;;;;;;8.27;2.30;;;17.10;99.90;;;;;;5132127;27;20067;-82
2023/08/04 00:31:39;;;;;;;6.78;1.70;;;16.90;99.90;;;;;;5102234;27;20031;-82
2023/08/04 00:34:04;;;;;;;8.10;2.17;;;16.90;99.90;;;;;;5132146;27;20389;-82
2023/08/04 00:36:30;;;;;;;6.55;2.20;;;16.90;99.90;;;;;;5113910;27;20092;-82
2023/08/04 00:38:56;;;;;;;7.60;2.10;;;16.90;99.90;;;;;;5132458;27;20031;-82
2023/08/04 00:41:21;;;;;;;5.13;1.58;;;16.90;99.90;;;;;;5113842;27;20076;-82
2023/08/04 00:43:47;;;;;;;6.18;2.00;;;16.90;99.90;;;;;;5113534;27;20046;-82
2023/08/04 00:46:13;;;;;;;5.70;1.60;;;16.90;99.90;;;;;;5112865;27;20039;-82
2023/08/04 00:48:39;;;;;;;5.93;1.60;;;16.90;99.90;;;;;;5131689;27;20167;-82
2023/08/04 00:51:05;;;;;;;12.20;2.08;;;16.90;99.90;;;;;;5131816;27;20477;-82
2023/08/04 00:53:30;;;;;;;5.30;1.55;;;16.80;99.90;;;;;;5132374;27;20499;-82
2023/08/04 00:55:56;;;;;;;6.80;1.92;;;16.80;99.90;;;;;;5131490;27;20043;-82
2023/08/04 00:58:22;;;;;;;4.82;1.83;;;16.80;99.90;;;;;;5113270;27;20046;-82
2023/08/04 01:00:48;;;;;;;6.13;2.03;;;16.80;99.90;;;;;;5131480;27;20039;-82
2023/08/04 01:03:14;;;;;;;3.58;1.45;;;16.80;99.90;;;;;;5112653;27;20043;-82
2023/08/04 01:05:56;;;;;;;5.22;1.40;;;16.80;99.90;;;;;;5096913;27;20509;-82
2023/08/04 01:08:27;;;;;;;6.20;1.75;;;16.80;99.90;;;;;;5113241;27;20045;-82
2023/08/04 01:11:08;;;;;;;5.53;1.67;;;16.80;99.90;;;;;;5131597;27;20131;-82
2023/08/04 01:13:34;;;;;;;5.35;1.52;;;16.80;99.90;;;;;;5136862;27;20074;-82
2023/08/04 01:16:04;;;;;;;5.32;1.40;;;16.80;99.90;;;;;;5112358;27;20035;-82
2023/08/04 01:18:30;;;;;;;4.32;1.83;;;16.70;99.90;;;;;;5113179;27;20055;-82
2023/08/04 01:21:00;;;;;;;6.05;1.60;;;16.70;99.90;;;;;;5113822;27;20046;-82
2023/08/04 01:23:26;;;;;;;5.47;1.75;;;16.70;99.90;;;;;;5113289;27;20516;-82
2023/08/04 01:25:51;;;;;;;4.78;1.60;;;16.70;99.90;;;;;;5096648;27;20047;-82
2023/08/04 01:28:19;;;;;;;6.97;2.10;;;16.70;99.90;;;;;;5131197;27;20042;-82
2023/08/04 01:30:48;;;;;;;3.38;1.20;;;16.70;99.90;;;;;;5130963;27;20164;-82
2023/08/04 01:33:15;;;;;;;5.63;1.48;;;16.60;99.90;;;;;;5113631;27;20047;-82
2023/08/04 01:35:42;;;;;;;6.65;1.80;;;16.70;99.90;;;;;;5131132;27;20035;-82
2023/08/04 01:38:11;;;;;;;4.57;1.48;;;16.60;99.90;;;;;;5134971;27;20050;-82
2023/08/04 01:40:37;;;;;;;6.85;2.00;;;16.60;99.90;;;;;;5112967;27;20051;-81
2023/08/04 01:43:04;;;;;;;7.30;1.55;;;16.60;99.90;;;;;;5113612;27;20486;-82
2023/08/04 01:45:30;;;;;;;4.93;1.50;;;16.50;99.90;;;;;;5112242;27;20511;-82
2023/08/04 01:47:56;;;;;;;7.72;1.70;;;16.50;99.90;;;;;;5112387;27;20035;-82
2023/08/04 01:50:21;;;;;;;6.90;1.60;;;16.50;99.90;;;;;;5112536;27;20095;-82
2023/08/04 01:52:47;;;;;;;6.60;2.03;;;16.50;99.90;;;;;;5131003;27;20039;-81
2023/08/04 01:55:13;;;;;;;7.00;1.90;;;16.40;99.90;;;;;;5130782;27;20046;-82
2023/08/04 01:57:39;;;;;;;7.45;1.80;;;16.40;99.90;;;;;;5111688;27;20232;-82
2023/08/04 02:00:06;;;;;;;7.53;1.92;;;16.40;99.90;;;;;;5114849;27;20122;-82
2023/08/04 02:02:32;;;;;;;6.90;1.63;;;16.40;99.90;;;;;;5113413;27;20047;-82
2023/08/04 02:04:57;;;;;;;5.40;1.73;;;16.40;99.90;;;;;;5098332;27;20477;-82
2023/08/04 02:07:23;;;;;;;4.40;1.30;;;16.50;99.90;;;;;;5112088;27;20031;-82
2023/08/04 02:09:48;;;;;;;9.38;1.70;;;16.50;99.90;;;;;;5103061;27;20083;-82
2023/08/04 02:12:14;;;;;;;6.93;1.58;;;16.50;99.90;;;;;;5105073;27;20121;-82
2023/08/04 02:14:40;;;;;;;5.35;1.60;;;16.50;99.90;;;;;;5101516;27;20047;-82
2023/08/04 02:17:05;;;;;;;6.97;1.48;;;16.40;99.90;;;;;;5099833;27;20149;-82
2023/08/04 02:19:31;;;;;;;8.13;1.67;;;16.40;99.90;;;;;;5115196;27;20092;-82
2023/08/04 02:21:57;;;;;;;5.43;1.60;;;16.40;99.90;;;;;;5111482;27;20039;-82
2023/08/04 02:24:22;;;;;;;4.20;1.40;;;16.40;99.90;;;;;;5130487;27;20031;-82
2023/08/04 02:26:48;;;;;;;7.32;1.67;;;16.40;99.90;;;;;;5111256;27;20074;-82
2023/08/04 02:29:13;;;;;;;4.47;1.50;;;16.40;99.90;;;;;;5129952;27;20104;-82
2023/08/04 02:31:40;;;;;;;6.30;1.33;;;16.40;99.90;;;;;;5112725;27;20423;-82
2023/08/04 02:34:06;;;;;;;4.70;1.10;;;16.40;99.90;;;;;;5112507;27;20086;-82
2023/08/04 02:36:32;;;;;;;4.43;1.23;;;16.40;99.90;;;;;;5130357;27;20465;-82
2023/08/04 02:38:58;;;;;;;8.10;1.25;;;16.40;99.90;;;;;;5125776;27;20087;-82
2023/08/04 02:41:23;;;;;;;4.18;1.20;;;16.30;99.90;;;;;;5110930;27;20035;-82
2023/08/04 02:43:49;;;;;;;5.22;1.17;;;16.30;99.90;;;;;;5130019;27;20045;-81
2023/08/04 02:46:14;;;;;;;6.15;1.48;;;16.30;99.90;;;;;;5094237;27;20420;-81
2023/08/04 02:48:40;;;;;;;7.88;1.20;;;16.30;99.90;;;;;;5113217;27;20091;-82
2023/08/04 02:51:12;;;;;;;6.60;1.00;;;16.30;99.90;;;;;;5103658;27;20036;-82
2023/08/04 02:53:40;;;;;;;9.75;1.55;;;16.30;99.90;;;;;;5094688;27;20523;-82
2023/08/04 02:56:17;;;;;;;6.97;1.58;;;16.30;99.90;;;;;;5115091;27;20397;-82
2023/08/04 02:58:44;;;;;;;5.32;1.48;;;16.30;99.90;;;;;;5111617;27;20461;-82
2023/08/04 03:01:10;;;;;;;3.25;1.30;;;16.20;99.90;;;;;;5129762;27;20034;-82
2023/08/04 03:03:36;;;;;;;6.10;1.85;;;16.20;99.90;;;;;;5094722;28;20047;-82
2023/08/04 03:06:03;;;;;;;5.68;1.52;;;16.30;99.90;;;;;;5129715;27;20027;-82
2023/08/04 03:08:29;;;;;;;5.18;1.60;;;16.20;99.90;;;;;;5129757;27;20035;-82
2023/08/04 03:10:55;;;;;;;5.60;1.45;;;16.20;99.90;;;;;;5113073;27;20088;-82
2023/08/04 03:13:21;;;;;;;4.90;1.42;;;16.20;99.90;;;;;;5133939;27;20039;-82
2023/08/04 03:15:52;;;;;;;4.68;1.70;;;16.30;99.90;;;;;;5134089;27;20123;-82
2023/08/04 03:18:18;;;;;;;5.68;1.30;;;16.30;99.90;;;;;;5133848;27;20125;-82
2023/08/04 03:20:44;;;;;;;5.68;1.55;;;16.20;99.90;;;;;;5115263;27;20482;-82
2023/08/04 03:23:09;;;;;;;5.57;1.30;;;16.20;99.90;;;;;;5133403;27;20047;-82
2023/08/04 03:25:35;;;;;;;3.38;1.20;;;16.20;99.90;;;;;;5132961;27;20375;-82
2023/08/04 03:28:00;;;;;;;3.30;1.02;;;16.20;99.90;;;;;;5133282;27;20027;-82
2023/08/04 03:30:26;;;;;;;5.68;1.38;;;16.20;99.90;;;;;;5115384;27;20038;-82
2023/08/04 03:32:52;;;;;;;4.90;1.17;;;16.20;99.90;;;;;;5115266;27;20051;-82
2023/08/04 03:35:18;;;;;;;7.30;1.40;;;16.20;99.90;;;;;;5134055;27;20043;-82
2023/08/04 03:37:47;;;;;;;3.03;1.00;;;16.20;99.90;;;;;;5127898;27;20122;-82
2023/08/04 03:40:14;;;;;;;5.35;1.50;;;16.20;99.90;;;;;;5132521;27;20574;-82
2023/08/04 03:42:40;;;;;;;3.78;1.40;;;16.10;99.90;;;;;;5136935;27;20058;-82
2023/08/04 03:45:06;;;;;;;3.70;1.30;;;16.10;99.90;;;;;;5133096;27;20035;-81
2023/08/04 03:47:34;;;;;;;4.88;1.15;;;16.10;99.90;;;;;;5133510;27;20052;-82
2023/08/04 03:50:01;;;;;;;2.47;1.15;;;16.00;99.90;;;;;;5114596;27;20042;-82
2023/08/04 03:52:26;;;;;;;7.05;1.63;;;16.00;99.90;;;;;;5114940;27;20039;-82
2023/08/04 03:54:52;;;;;;;3.90;1.85;;;16.00;99.90;;;;;;5133009;27;20037;-82
2023/08/04 03:57:18;;;;;;;4.25;1.42;;;15.90;99.90;;;;;;5114787;27;20043;-82
2023/08/04 03:59:43;;;;;;;4.57;1.10;;;15.90;99.90;;;;;;5129135;27;20442;-82
2023/08/04 04:02:09;;;;;;;5.72;1.70;;;15.90;99.90;;;;;;5132523;27;20053;-82
2023/08/04 04:04:35;;;;;;;5.82;1.52;;;15.90;99.90;;;;;;5114204;27;20054;-82
2023/08/04 04:07:00;;;;;;;4.20;1.30;;;15.90;99.90;;;;;;5132430;27;20439;-82
2023/08/04 04:09:26;;;;;;;4.22;1.23;;;15.80;99.90;;;;;;5113847;27;20076;-82
2023/08/04 04:11:51;;;;;;;4.32;1.27;;;15.80;99.90;;;;;;5132986;27;20118;-82
2023/08/04 04:14:17;;;;;;;4.60;1.40;;;15.80;99.90;;;;;;5104390;27;20477;-82
2023/08/04 04:16:42;;;;;;;3.45;1.13;;;15.80;99.90;;;;;;5102096;27;20074;-82
2023/08/04 04:19:08;;;;;;;3.65;1.20;;;15.80;99.90;;;;;;5136305;27;20039;-82
2023/08/04 04:21:34;;;;;;;7.78;1.40;;;15.80;99.90;;;;;;5113468;27;20115;-82
2023/08/04 04:23:59;;;;;;;6.70;1.35;;;15.90;99.90;;;;;;5131395;27;20071;-82
2023/08/04 04:26:25;;;;;;;4.68;1.20;;;15.90;99.90;;;;;;5132669;27;20122;-82
2023/08/04 04:28:51;;;;;;;3.65;1.10;;;15.90;99.90;;;;;;5132681;27;20027;-82
2023/08/04 04:31:16;;;;;;;4.13;1.35;;;15.90;99.90;;;;;;5132363;27;20035;-82
2023/08/04 04:33:42;;;;;;;3.30;1.20;;;15.90;99.90;;;;;;5132630;27;20039;-82
2023/08/04 04:36:07;;;;;;;3.92;1.38;;;15.90;99.90;;;;;;5131874;27;20039;-82
2023/08/04 04:38:33;;;;;;;3.55;1.17;;;15.90;99.90;;;;;;5131965;27;20470;-82
2023/08/04 04:41:03;;;;;;;3.13;1.20;;;16.00;99.90;;;;;;5131955;27;20138;-82
2023/08/04 04:43:30;;;;;;;3.83;1.30;;;16.00;99.90;;;;;;5131999;27;20039;-82
2023/08/04 04:45:56;;;;;;;5.28;1.40;;;16.00;99.90;;;;;;5119601;27;20079;-82
2023/08/04 04:48:23;;;;;;;7.07;1.50;;;16.00;99.90;;;;;;5132059;27;20073;-82
2023/08/04 04:50:50;;;;;;;5.70;1.38;;;16.00;99.90;;;;;;5131936;27;20031;-82
2023/08/04 04:53:16;;;;;;;4.13;1.40;;;16.00;99.90;;;;;;5114634;27;20066;-82
2023/08/04 04:55:42;;;;;;;5.05;1.73;;;16.00;99.90;;;;;;5131903;27;20027;-82
2023/08/04 04:58:07;;;;;;;5.90;1.42;;;16.00;99.90;;;;;;5123291;27;20039;-81
2023/08/04 05:00:34;;;;;;;4.28;1.52;;;16.00;99.90;;;;;;5132489;27;20465;-81
2023/08/04 05:03:01;;;;;;;3.03;1.20;;;16.00;99.90;;;;;;5099308;27;20095;-82
2023/08/04 05:05:28;;;;;;;2.13;1.00;;;16.00;99.90;;;;;;5131523;27;20043;-82
2023/08/04 05:07:54;;;;;;;3.47;1.00;;;16.10;99.90;;;;;;5135371;27;20046;-82
2023/08/04 05:10:19;;;;;;;2.63;1.15;;;16.00;99.90;;;;;;5117994;27;20385;-82
2023/08/04 05:12:45;;;;;;;2.00;1.13;;;16.10;99.90;;;;;;5113042;27;20031;-82
2023/08/04 05:15:10;;;;;;;5.22;1.40;;;16.10;99.90;;;;;;5125167;27;20439;-82
2023/08/04 05:17:36;;;;;;;3.45;1.15;;;16.10;99.90;;;;;;5131834;27;20476;-82
2023/08/04 05:20:03;;;;;;;4.88;1.45;;;16.10;99.90;;;;;;5131110;27;20065;-82
2023/08/04 05:22:29;;;;;;;3.25;1.40;;;16.00;99.90;;;;;;5131074;27;20039;-82
2023/08/04 05:24:54;;;;;;;3.42;1.55;;;16.00;99.90;;;;;;5131018;27;20031;-82
2023/08/04 05:27:20;;;;;;;3.25;1.30;;;16.00;99.90;;;;;;5131338;27;20027;-82
2023/08/04 05:29:45;;;;;;;3.38;1.38;;;16.00;99.90;;;;;;5131316;27;20066;-82
2023/08/04 05:32:11;;;;;;;3.05;1.15;;;16.00;99.90;;;;;;5112422;27;20062;-82
2023/08/04 05:34:37;;;;;;;5.18;1.30;;;16.00;99.90;;;;;;5096522;27;20045;-82
2023/08/04 05:37:03;;;;;;;2.97;1.20;;;16.00;99.90;;;;;;5130402;27;20366;-82
2023/08/04 05:39:28;;;;;;;3.90;1.70;;;16.00;99.90;;;;;;5131066;27;20408;-82
2023/08/04 05:41:54;;;;;;;3.08;1.35;;;16.10;99.90;;;;;;5113482;27;20509;-81
2023/08/04 05:44:22;;;;;;;3.65;1.20;;;16.10;99.90;;;;;;5130888;27;20043;-82
2023/08/04 05:46:47;;;;;;;8.50;2.03;;;16.20;99.90;;;;;;5112548;27;20512;-82
2023/08/04 05:49:13;;;;;;;6.07;1.65;;;16.20;99.90;;;;;;5130641;27;20035;-82
2023/08/04 05:51:39;;;;;;;4.65;1.42;;;16.20;99.90;;;;;;5130554;27;20035;-82
2023/08/04 05:54:04;;;;;;;3.15;1.25;;;16.20;99.90;;;;;;5130462;27;20075;-82
2023/08/04 05:56:30;;;;;;;3.38;1.50;;;16.30;99.90;;;;;;5131047;27;20110;-82
2023/08/04 05:58:55;;;;;;;2.70;1.30;;;16.30;99.90;;;;;;5130439;27;20085;-82
2023/08/04 06:01:21;;;;;;;6.78;2.00;;;16.30;99.90;;;;;;5130607;27;20070;-82
2023/08/04 06:03:47;;;;;;;7.45;1.92;;;16.30;99.90;;;;;;5130756;27;20070;-82
2023/08/04 06:06:12;;;;;;;4.70;1.77;;;16.30;99.90;;;;;;5130060;27;20042;-82
2023/08/04 06:08:38;;;;;;;5.38;1.63;;;16.40;99.90;;;;;;5112117;27;20118;-82
2023/08/04 06:11:04;;;;;;;3.78;1.40;;;16.50;99.90;;;;;;5095732;27;20074;-82
2023/08/04 06:13:29;;;;;;;4.13;1.67;;;16.50;99.90;;;;;;5130349;27;20039;-82
2023/08/04 06:15:55;;;;;;;4.32;1.42;;;16.40;99.90;;;;;;5126387;27;20092;-82
2023/08/04 06:18:21;;;;;;;4.90;2.13;;;16.50;99.90;;;;;;5112796;27;20073;-82
2023/08/04 06:20:47;;;;;;;7.03;2.10;;;16.50;99.90;;;;;;5129774;27;20412;-82
2023/08/04 06:23:13;;;;;;;4.32;1.52;;;16.50;99.90;;;;;;5130214;27;20051;-82
2023/08/04 06:25:39;;;;;;;5.00;1.83;;;16.50;99.90;;;;;;5130539;27;20037;-82
2023/08/04 06:28:04;;;;;;;4.25;1.83;;;16.60;99.90;;;;;;5121189;27;20030;-82
2023/08/04 06:30:31;;;;;;;4.38;1.80;;;16.70;99.90;;;;;;5128788;27;20030;-82
2023/08/04 06:32:56;;;;;;;6.05;1.80;;;16.70;99.90;;;;;;5100718;27;20461;-82
2023/08/04 06:35:22;;;;;;;7.55;2.33;;;16.70;99.90;;;;;;5129939;27;20066;-82
2023/08/04 06:37:48;;;;;;;6.07;2.15;;;16.70;99.90;;;;;;5112268;27;20043;-82
2023/08/04 06:40:14;;;;;;;6.13;1.88;;;16.70;99.90;;;;;;5130108;27;20039;-82
2023/08/04 06:42:39;;;;;;;3.13;1.10;;;16.70;99.90;;;;;;5129926;27;20393;-82
2023/08/04 06:45:06;;;;;;;5.78;1.80;;;16.80;99.90;;;;;;5129995;27;20041;-82
2023/08/04 06:47:32;;;;;;;5.32;1.85;;;16.80;99.90;;;;;;5128894;27;20041;-82
2023/08/04 06:49:58;;;;;;;5.18;2.10;;;16.80;99.90;;;;;;5131255;27;20118;-82
2023/08/04 06:52:23;;;;;;;4.60;1.55;;;16.80;99.90;;;;;;5129856;27;20299;-82
2023/08/04 06:54:49;;;;;;;7.82;1.90;;;16.90;99.90;;;;;;5129547;27;20079;-81
2023/08/04 06:57:15;;;;;;;5.47;2.08;;;16.90;99.90;;;;;;5129446;27;20054;-82
2023/08/04 06:59:41;;;;;;;8.15;2.25;;;17.00;99.90;;;;;;5130073;27;20416;-82
2023/08/04 07:02:06;;;;;;;2.65;1.20;;;17.00;99.90;;;;;;5110216;27;20050;-82
2023/08/04 07:04:32;;;;;;;5.13;1.75;;;17.10;99.90;;;;;;5111713;27;20050;-82
2023/08/04 07:06:57;;;;;;;4.95;1.63;;;17.10;99.90;;;;;;5111423;28;20186;-82
2023/08/04 07:09:24;;;;;;;4.82;1.52;;;17.30;99.90;;;;;;5129735;27;20036;-82
2023/08/04 07:11:49;;;;;;;5.25;1.40;;;17.30;99.90;;;;;;5129713;27;20034;-82
2023/08/04 07:14:15;;;;;;;4.60;1.65;;;17.40;99.90;;;;;;5129578;27;20122;-82
2023/08/04 07:16:41;;;;;;;6.30;1.88;;;17.40;99.90;;;;;;5129065;27;20413;-82
2023/08/04 07:19:06;;;;;;;3.05;1.35;;;17.40;99.90;;;;;;5110853;27;20043;-82
2023/08/04 07:21:32;;;;;;;5.65;2.15;;;17.50;99.90;;;;;;5111151;28;20031;-82
2023/08/04 07:23:58;;;;;;;5.05;1.73;;;17.50;99.90;;;;;;5110678;28;20417;-82
2023/08/04 07:26:23;;;;;;;4.57;1.88;;;17.60;99.90;;;;;;5129832;27;20039;-82
2023/08/04 07:28:49;;;;;;;4.32;1.38;;;17.60;99.90;;;;;;5130553;27;20397;-82
2023/08/04 07:31:15;;;;;;;4.93;1.83;;;17.70;99.90;;;;;;5128762;27;20047;-82
2023/08/04 07:33:40;;;;;;;3.65;1.35;;;17.70;99.90;;;;;;5110961;28;20042;-82
2023/08/04 07:36:06;;;;;;;4.93;2.00;;;17.80;99.90;;;;;;5129384;27;20042;-82
2023/08/04 07:38:32;;;;;;;6.10;2.05;;;17.80;99.90;;;;;;5111009;27;20047;-82
2023/08/04 07:40:58;;;;;;;6.13;2.10;;;17.80;99.90;;;;;;5110775;28;20085;-82
2023/08/04 07:43:24;;;;;;;3.80;1.63;;;17.80;99.90;;;;;;5110962;27;20047;-82
2023/08/04 07:45:51;;;;;;;5.78;2.22;;;17.90;99.90;;;;;;5110585;28;20039;-82
2023/08/04 07:48:17;;;;;;;7.82;2.00;;;17.90;99.90;;;;;;5110602;27;20045;-82
2023/08/04 07:50:44;;;;;;;6.07;1.70;;;17.90;99.90;;;;;;5110840;28;20110;-82
2023/08/04 07:53:10;;;;;;;4.55;1.63;;;18.00;99.90;;;;;;5100208;27;20104;-82
2023/08/04 07:55:36;;;;;;;4.15;1.90;;;18.10;99.90;;;;;;5111057;27;20043;-82
2023/08/04 07:58:05;;;;;;;7.80;2.20;;;18.10;99.90;;;;;;5131046;27;20063;-82
2023/08/04 08:00:31;;;;;;;7.30;2.03;;;18.20;99.90;;;;;;5132574;27;20047;-82
2023/08/04 08:02:57;;;;;;;4.30;1.63;;;18.30;99.90;;;;;;5114260;27;20143;-82
2023/08/04 08:05:22;;;;;;;5.85;1.73;;;18.30;99.90;;;;;;5133064;27;20082;-82
2023/08/04 08:07:48;;;;;;;4.47;1.70;;;18.30;99.90;;;;;;5133014;27;20037;-82
2023/08/04 08:10:14;;;;;;;4.85;1.67;;;18.30;99.90;;;;;;5114309;27;20547;-82
2023/08/04 08:12:39;;;;;;;9.38;1.92;;;18.30;99.90;;;;;;5132907;27;20086;-82
2023/08/04 08:15:06;;;;;;;5.22;1.80;;;18.30;99.90;;;;;;5132022;27;20035;-82
2023/08/04 08:17:32;;;;;;;8.07;1.92;;;18.30;99.90;;;;;;5132863;27;20102;-82
2023/08/04 08:19:58;;;;;;;7.80;1.63;;;18.30;99.90;;;;;;5113917;27;20038;-82
2023/08/04 08:22:23;;;;;;;3.45;1.20;;;18.40;99.90;;;;;;5132824;27;20439;-82
2023/08/04 08:24:56;;;;;;;4.13;1.45;;;18.50;99.90;;;;;;5132974;27;20041;-82
2023/08/04 08:27:23;;;;;;;4.53;1.70;;;18.60;99.90;;;;;;5127264;27;20053;-82
2023/08/04 08:29:53;;;;;;;6.97;1.70;;;18.80;99.90;;;;;;5113479;27;20031;-81
2023/08/04 08:32:19;;;;;;;4.90;1.70;;;18.80;99.90;;;;;;5111293;27;20046;-81
2023/08/04 08:34:45;;;;;;;4.93;1.40;;;18.90;99.90;;;;;;5132655;27;20039;-82
2023/08/04 08:37:10;;;;;;;7.20;1.73;;;18.80;99.90;;;;;;5113497;27;20107;-81
2023/08/04 08:39:36;;;;;;;4.47;1.48;;;18.80;99.90;;;;;;5097562;27;20046;-81
2023/08/04 08:42:02;;;;;;;5.97;1.80;;;18.70;99.90;;;;;;5114725;27;20534;-81
2023/08/04 08:44:28;;;;;;;4.50;1.60;;;18.50;99.90;;;;;;5131858;27;20168;-81
2023/08/04 08:46:54;;;;;;;9.32;2.00;;;18.50;99.90;;;;;;5113381;27;20114;-81
2023/08/04 08:49:25;;;;;;;7.75;1.80;;;18.50;99.90;;;;;;5132461;27;20039;-81
2023/08/04 08:51:54;;;;;;;7.38;1.50;;;18.50;99.90;;;;;;5135284;27;20486;-81
2023/08/04 08:54:20;;;;;;;9.95;2.28;;;18.50;99.90;;;;;;5132195;27;20039;-81
2023/08/04 08:56:46;;;;;;;5.80;1.48;;;18.50;99.90;;;;;;5132049;27;20036;-82
2023/08/04 08:59:12;;;;;;;4.65;1.50;;;18.50;99.90;;;;;;5131023;27;20034;-82
2023/08/04 09:01:38;;;;;;;6.30;1.52;;;18.60;99.90;;;;;;5131771;27;20109;-82
2023/08/04 09:04:05;;;;;;;7.95;1.52;;;18.70;99.90;;;;;;5122076;27;20055;-82
2023/08/04 09:06:30;;;;;;;5.03;1.20;;;18.80;99.90;;;;;;5113611;27;20085;-82
2023/08/04 09:08:58;;;;;;;4.50;1.30;;;19.00;99.90;;;;;;5112979;27;20074;-82
2023/08/04 09:11:24;;;;;;;5.70;1.38;;;19.20;99.90;;;;;;5131622;27;20031;-82
2023/08/04 09:13:50;;;;;;;4.28;1.20;;;19.40;99.90;;;;;;5112887;27;20478;-82
2023/08/04 09:16:16;;;;;;;7.22;1.30;;;19.40;99.90;;;;;;5131710;27;20031;-81
2023/08/04 09:18:42;;;;;;;4.65;1.30;;;19.40;99.90;;;;;;5131610;27;20564;-82
2023/08/04 09:21:08;;;;;;;4.38;1.27;;;19.30;99.90;;;;;;5131344;27;20367;-82
2023/08/04 09:23:49;;;;;;;4.28;1.02;;;19.10;99.90;;;;;;5131475;27;20038;-82
2023/08/04 09:26:15;;;;;;;3.75;1.15;;;18.90;99.90;;;;;;5131253;27;20039;-81
2023/08/04 09:28:41;;;;;;;3.70;1.13;;;18.70;99.90;;;;;;5112475;27;20038;-81
2023/08/04 09:31:12;;;;;;;4.78;1.08;;;18.70;99.90;;;;;;5112645;27;20095;-81
2023/08/04 09:33:41;;;;;;;3.95;1.20;;;18.60;99.90;;;;;;5113624;27;20063;-81
2023/08/04 09:36:09;;;;;;;5.97;1.20;;;18.60;99.90;;;;;;5112603;27;20054;-81
2023/08/04 09:38:37;;;;;;;4.85;1.52;;;18.60;99.90;;;;;;5112998;27;20055;-81
2023/08/04 09:41:05;;;;;;;5.20;1.50;;;18.60;99.90;;;;;;5130815;27;20035;-81
2023/08/04 09:43:31;;;;;;;10.32;3.42;;;18.70;99.90;;;;;;5130539;27;20485;-81
2023/08/04 09:45:58;;;;;;;5.32;1.40;;;18.80;99.90;;;;;;5130621;27;20110;-81
2023/08/04 09:48:27;;;;;;;4.07;1.50;;;19.00;99.90;;;;;;5123078;27;20060;-81
2023/08/04 09:51:16;;;;;;;7.15;1.58;;;19.20;99.90;;;;;;5130418;27;20038;-81
2023/08/04 09:53:49;;;;;;;4.53;1.33;;;19.40;99.90;;;;;;5131024;27;20043;-81
2023/08/04 09:56:17;;;;;;;6.40;1.20;;;19.50;99.90;;;;;;5111608;27;20043;-81
2023/08/04 09:58:44;;;;;;;6.32;1.40;;;19.60;99.90;;;;;;5112375;27;20498;-81
2023/08/04 10:01:11;;;;;;;6.05;1.25;;;19.60;99.90;;;;;;5112076;27;20053;-82
2023/08/04 10:03:42;;;;;;;6.10;1.50;;;19.70;99.90;;;;;;5130536;27;20050;-81
2023/08/04 10:06:09;;;;;;;8.05;1.95;;;19.80;99.90;;;;;;5130306;27;20039;-81
2023/08/04 10:08:42;;;;;;;6.63;1.40;;;19.80;99.90;;;;;;5130843;27;20076;-82
2023/08/04 10:11:08;;;;;;;6.60;1.70;;;19.80;99.90;;;;;;5129954;27;20070;-81
2023/08/04 10:13:39;;;;;;;5.70;1.55;;;19.70;99.90;;;;;;5128029;27;20039;-82
2023/08/04 10:16:07;;;;;;;6.10;1.58;;;19.60;99.90;;;;;;5114946;27;20060;-81
2023/08/04 10:18:52;;;;;;;6.07;1.70;;;19.50;99.90;;;;;;5112044;27;20092;-82
2023/08/04 10:21:41;;;;;;;9.73;1.75;;;19.50;99.90;;;;;;5111549;27;20053;-82
2023/08/04 10:24:13;;;;;;;6.97;1.88;;;19.40;99.90;;;;;;5102625;27;20055;-82
2023/08/04 10:26:47;;;;;;;6.47;1.60;;;19.40;99.90;;;;;;5125804;27;20035;-81
2023/08/04 10:29:14;;;;;;;6.55;1.60;;;19.40;99.90;;;;;;5112201;27;20126;-81
2023/08/04 10:31:46;;;;;;;7.88;1.67;;;19.40;99.90;;;;;;5131117;27;20031;-82
2023/08/04 10:34:21;;;;;;;8.02;1.45;;;19.50;99.90;;;;;;5109985;27;20043;-82
2023/08/04 10:37:17;;;;;;;6.88;1.27;;;19.60;99.90;;;;;;5130034;27;20034;-83
2023/08/04 10:39:55;;;;;;;4.63;1.15;;;19.80;99.90;;;;;;5127873;27;20039;-82
2023/08/04 10:42:23;;;;;;;7.18;1.65;;;19.90;99.90;;;;;;5130147;27;20053;-82
2023/08/04 10:45:05;;;;;;;6.25;1.30;;;20.00;99.90;;;;;;5130050;27;20489;-82
2023/08/04 10:47:46;;;;;;;5.20;1.42;;;20.20;99.90;;;;;;5129786;27;20061;-82
2023/08/04 10:50:13;;;;;;;5.75;1.33;;;20.40;99.90;;;;;;5111244;27;20038;-81
2023/08/04 10:52:41;;;;;;;4.45;1.27;;;20.60;99.90;;;;;;5130062;27;20035;-81
2023/08/04 10:55:09;;;;;;;4.47;1.25;;;20.50;99.90;;;;;;5129347;27;20057;-82
2023/08/04 10:57:36;;;;;;;4.32;0.90;;;20.30;99.90;;;;;;5130434;27;20046;-82
2023/08/04 11:00:07;;;;;;;2.88;0.90;;;20.10;99.90;;;;;;5129411;27;20100;-82
2023/08/04 11:02:34;;;;;;;2.42;0.90;;;20.10;99.90;;;;;;5096190;28;20050;-82
2023/08/04 11:05:03;;;;;;;3.45;0.90;;;20.10;99.90;;;;;;5129452;27;20435;-81
2023/08/04 11:07:29;;;;;;;5.88;1.00;;;20.30;99.90;;;;;;5112365;27;20031;-81
2023/08/04 11:09:55;;;;;;;3.63;1.05;;;20.50;99.90;;;;;;5094226;27;20043;-81
2023/08/04 11:12:21;;;;;;;6.05;1.65;;;20.80;99.90;;;;;;5112535;28;20077;-82
2023/08/04 11:14:49;;;;;;;4.25;1.10;;;20.80;99.90;;;;;;5129669;27;20032;-81
2023/08/04 11:17:17;;;;;;;4.03;1.00;;;20.80;99.90;;;;;;5094595;27;20670;-81
2023/08/04 11:19:50;;;;;;;3.35;0.90;;;20.80;99.90;;;;;;5111310;27;20057;-81
2023/08/04 11:22:17;;;;;;;4.00;0.95;;;20.90;99.90;;;;;;5129319;27;20157;-81
2023/08/04 11:24:43;;;;;;;3.47;0.90;;;20.80;99.90;;;;;;5111104;27;20050;-81
2023/08/04 11:27:13;;;;;;;5.03;0.70;;;20.70;99.90;;;;;;5129233;27;20664;-81
2023/08/04 11:29:38;;;;;;;3.00;0.75;;;20.60;99.90;;;;;;5111111;27;20039;-81
2023/08/04 11:32:10;;;;;;;2.75;0.80;;;20.70;99.90;;;;;;5137072;27;20096;-82
2023/08/04 11:34:38;;;;;;;4.07;1.00;;;20.90;99.90;;;;;;5133704;27;20032;-81
2023/08/04 11:37:04;;;;;;;6.57;1.17;;;21.00;99.90;;;;;;5133369;27;20092;-81
2023/08/04 11:39:30;;;;;;;4.43;0.95;;;21.00;99.90;;;;;;5132936;27;20031;-81
2023/08/04 11:41:56;;;;;;;6.57;0.98;;;20.90;99.90;;;;;;5132950;27;20371;-81
2023/08/04 11:44:22;;;;;;;1.67;0.80;;;20.80;99.90;;;;;;5133642;27;20031;-81
2023/08/04 11:46:48;;;;;;;5.20;0.80;;;20.70;99.90;;;;;;5133495;27;20110;-82
2023/08/04 11:49:15;;;;;;;2.20;0.90;;;20.80;99.90;;;;;;5117016;27;20043;-81
2023/08/04 11:51:44;;;;;;;2.85;1.00;;;20.80;99.90;;;;;;5114793;27;20042;-82
2023/08/04 11:54:24;;;;;;;8.10;1.35;;;20.80;99.90;;;;;;5115390;27;20046;-80
2023/08/04 11:56:57;;;;;;;4.10;0.95;;;20.80;99.90;;;;;;5115051;27;20080;-81
2023/08/04 11:59:23;;;;;;;4.05;1.02;;;20.70;99.90;;;;;;5133438;27;20035;-81
2023/08/04 12:01:49;;;;;;;5.35;1.10;;;20.70;99.90;;;;;;5132890;27;20302;-81
2023/08/04 12:04:25;;;;;;;3.10;0.85;;;20.70;99.90;;;;;;5114172;27;20083;-82
2023/08/04 12:07:01;;;;;;;4.22;1.00;;;20.70;99.90;;;;;;5114364;27;20035;-82
2023/08/04 12:09:27;;;;;;;4.10;0.98;;;20.90;99.90;;;;;;5114986;27;20042;-81
2023/08/04 12:11:53;;;;;;;4.05;1.10;;;20.90;99.90;;;;;;5132724;27;20042;-82
2023/08/04 12:14:20;;;;;;;2.80;0.88;;;21.00;99.90;;;;;;5132926;27;20035;-81
2023/08/04 12:17:00;;;;;;;1.88;0.73;;;21.10;99.90;;;;;;5133501;27;20042;-81
2023/08/04 12:19:29;;;;;;;1.92;0.60;;;21.30;99.90;;;;;;5114749;27;20080;-82
2023/08/04 12:22:00;;;;;;;2.42;0.70;;;21.30;99.90;;;;;;5131976;27;20038;-82
2023/08/04 12:24:27;;;;;;;2.67;0.80;;;21.40;99.90;;;;;;5114715;27;20056;-82
2023/08/04 12:26:53;;;;;;;3.65;0.80;;;21.50;99.90;;;;;;5132762;27;20058;-82
2023/08/04 12:29:19;;;;;;;3.38;0.90;;;21.50;99.90;;;;;;5132520;27;20027;-81
2023/08/04 12:31:45;;;;;;;6.50;0.98;;;21.50;99.90;;;;;;5132437;27;20563;-81
2023/08/04 12:34:11;;;;;;;3.30;0.80;;;21.50;99.90;;;;;;5132423;27;20040;-82
2023/08/04 12:36:38;;;;;;;3.08;1.00;;;21.50;99.90;;;;;;5113240;27;20046;-81
2023/08/04 12:39:05;;;;;;;4.68;0.90;;;21.50;99.90;;;;;;5118741;27;20097;-82
2023/08/04 12:41:33;;;;;;;3.83;1.10;;;21.50;99.90;;;;;;5132406;27;20058;-81
2023/08/04 12:43:59;;;;;;;5.90;0.90;;;21.50;99.90;;;;;;5131272;27;20053;-82